createdAt,value
2023-03-07T00:00:09.540Z,8.73
2023-03-07T00:01:43.003Z,8.25
2023-03-07T00:03:18.366Z,8.52
2023-03-07T00:04:51.552Z,9.98
2023-03-07T00:06:24.615Z,10.15
2023-03-07T00:07:59.321Z,10.85
2023-03-07T00:09:32.469Z,10.65
2023-03-07T00:11:07.585Z,10.00
2023-03-07T00:12:41.034Z,9.32
2023-03-07T00:14:14.158Z,9.85
2023-03-07T00:15:46.319Z,10.23
2023-03-07T00:17:19.505Z,10.25
2023-03-07T00:18:53.175Z,10.43
2023-03-07T00:20:25.413Z,10.25
2023-03-07T00:21:58.549Z,9.43
2023-03-07T00:23:33.296Z,8.68
2023-03-07T00:25:06.183Z,9.35
2023-03-07T00:26:39.870Z,8.18
2023-03-07T00:28:12.250Z,8.85
2023-03-07T00:29:45.469Z,9.52
2023-03-07T00:31:19.642Z,9.32
2023-03-07T00:32:53.011Z,10.52
2023-03-07T00:34:26.265Z,11.32
2023-03-07T00:36:00.126Z,11.13
2023-03-07T00:37:33.839Z,9.98
2023-03-07T00:39:08.468Z,10.65
2023-03-07T00:40:40.776Z,11.15
2023-03-07T00:42:13.872Z,10.18
2023-03-07T00:43:47.592Z,11.85
2023-03-07T00:45:20.687Z,10.93
2023-03-07T00:46:54.048Z,10.68
2023-03-07T00:48:27.228Z,9.95
2023-03-07T00:50:01.326Z,9.75
2023-03-07T00:51:34.444Z,12.85
2023-03-07T00:53:06.603Z,10.85
2023-03-07T00:54:41.165Z,12.77
2023-03-07T00:56:16.882Z,13.40
2023-03-07T00:57:50.861Z,11.30
2023-03-07T00:59:24.075Z,10.18
2023-03-07T01:00:58.048Z,9.73
2023-03-07T01:02:32.481Z,9.38
2023-03-07T01:04:05.885Z,9.07
2023-03-07T01:05:39.454Z,9.57
2023-03-07T01:07:12.909Z,9.70
2023-03-07T01:08:46.805Z,9.65
2023-03-07T01:10:22.788Z,8.90
2023-03-07T01:11:55.996Z,14.50
2023-03-07T01:13:28.674Z,7.47
2023-03-07T01:15:05.614Z,9.13
2023-03-07T01:16:40.169Z,9.13
2023-03-07T01:18:13.620Z,8.88
2023-03-07T01:19:46.800Z,9.73
2023-03-07T01:21:22.250Z,8.95
2023-03-07T01:22:56.224Z,9.75
2023-03-07T01:24:28.746Z,9.65
2023-03-07T01:26:03.933Z,9.68
2023-03-07T01:27:37.967Z,9.57
2023-03-07T01:29:13.188Z,10.35
2023-03-07T01:30:45.569Z,9.77
2023-03-07T01:32:18.800Z,8.65
2023-03-07T01:33:54.184Z,10.25
2023-03-07T01:35:28.315Z,9.70
2023-03-07T01:37:03.545Z,8.38
2023-03-07T01:38:35.771Z,7.90
2023-03-07T01:40:14.143Z,7.95
2023-03-07T01:41:49.189Z,8.77
2023-03-07T01:43:27.390Z,8.10
2023-03-07T01:45:29.833Z,8.45
2023-03-07T01:47:03.745Z,9.80
2023-03-07T01:48:42.668Z,8.05
2023-03-07T01:50:18.914Z,8.98
2023-03-07T01:51:58.326Z,9.77
2023-03-07T01:53:30.731Z,10.00
2023-03-07T01:55:08.337Z,10.30
2023-03-07T01:56:42.656Z,9.23
2023-03-07T01:58:17.539Z,9.38
2023-03-07T01:59:55.699Z,8.50
2023-03-07T02:01:28.747Z,8.90
2023-03-07T02:03:09.500Z,9.38
2023-03-07T02:04:50.980Z,9.15
2023-03-07T02:06:25.134Z,9.32
2023-03-07T02:08:02.230Z,9.43
2023-03-07T02:09:39.232Z,10.63
2023-03-07T02:11:12.153Z,11.23
2023-03-07T02:12:45.927Z,12.38
2023-03-07T02:14:20.392Z,11.00
2023-03-07T02:15:54.133Z,10.63
2023-03-07T02:17:28.420Z,10.77
2023-03-07T02:19:01.498Z,13.07
2023-03-07T02:20:43.988Z,11.50
2023-03-07T02:22:20.095Z,9.73
2023-03-07T02:23:59.483Z,9.88
2023-03-07T02:25:37.401Z,10.57
2023-03-07T02:27:12.291Z,9.93
2023-03-07T02:28:48.603Z,9.63
2023-03-07T02:30:22.814Z,10.23
2023-03-07T02:31:58.652Z,9.43
2023-03-07T02:33:32.052Z,11.07
2023-03-07T02:35:15.501Z,10.52
2023-03-07T02:36:51.349Z,10.18
2023-03-07T02:38:27.989Z,8.98
2023-03-07T02:40:06.916Z,9.50
2023-03-07T02:41:40.814Z,8.65
2023-03-07T02:43:24.690Z,9.35
2023-03-07T02:44:59.776Z,8.85
2023-03-07T02:46:34.842Z,9.38
2023-03-07T02:48:08.222Z,9.30
2023-03-07T02:49:41.733Z,8.70
2023-03-07T02:51:14.273Z,8.82
2023-03-07T02:52:51.158Z,8.60
2023-03-07T02:54:25.086Z,10.00
2023-03-07T02:55:58.561Z,10.13
2023-03-07T02:57:32.225Z,11.13
2023-03-07T02:59:07.471Z,12.77
2023-03-07T03:00:40.781Z,13.63
2023-03-07T03:02:14.291Z,14.40
2023-03-07T03:03:47.554Z,13.32
2023-03-07T03:05:21.367Z,14.73
2023-03-07T03:06:54.577Z,12.70
2023-03-07T03:08:27.870Z,11.05
2023-03-07T03:10:01.290Z,13.90
2023-03-07T03:11:36.561Z,12.32
2023-03-07T03:13:09.932Z,11.25
2023-03-07T03:14:44.145Z,9.60
2023-03-07T03:16:18.464Z,11.30
2023-03-07T03:17:54.567Z,11.18
2023-03-07T03:19:29.668Z,9.80
2023-03-07T03:21:09.202Z,7.90
2023-03-07T03:22:43.154Z,9.35
2023-03-07T03:24:17.521Z,8.50
2023-03-07T03:25:59.184Z,8.02
2023-03-07T03:27:33.698Z,8.77
2023-03-07T03:29:07.496Z,7.60
2023-03-07T03:30:41.520Z,7.38
2023-03-07T03:32:14.780Z,8.18
2023-03-07T03:33:52.459Z,7.35
2023-03-07T03:35:24.641Z,7.07
2023-03-07T03:37:00.394Z,7.55
2023-03-07T03:38:34.562Z,8.18
2023-03-07T03:40:14.875Z,7.65
2023-03-07T03:41:49.682Z,8.05
2023-03-07T03:43:23.566Z,7.82
2023-03-07T03:44:56.741Z,7.65
2023-03-07T03:46:31.574Z,8.10
2023-03-07T03:48:05.322Z,8.48
2023-03-07T03:49:38.588Z,8.48
2023-03-07T03:51:14.549Z,9.50
2023-03-07T03:52:46.846Z,9.27
2023-03-07T03:54:20.064Z,9.40
2023-03-07T03:55:53.316Z,13.00
2023-03-07T03:57:26.491Z,17.50
2023-03-07T03:59:00.011Z,9.55
2023-03-07T04:00:33.205Z,9.90
2023-03-07T04:02:08.124Z,11.90
2023-03-07T04:03:42.562Z,12.75
2023-03-07T04:05:15.939Z,12.55
2023-03-07T04:06:49.562Z,12.18
2023-03-07T04:08:22.517Z,11.88
2023-03-07T04:09:55.956Z,18.75
2023-03-07T04:11:29.989Z,22.63
2023-03-07T04:13:03.194Z,14.18
2023-03-07T04:14:35.527Z,12.45
2023-03-07T04:16:09.120Z,11.18
2023-03-07T04:17:43.890Z,11.68
2023-03-07T04:19:16.186Z,11.60
2023-03-07T04:20:51.102Z,10.68
2023-03-07T04:22:24.336Z,12.07
2023-03-07T04:23:58.630Z,9.88
2023-03-07T04:25:35.864Z,9.63
2023-03-07T04:27:09.274Z,9.38
2023-03-07T04:28:49.235Z,10.18
2023-03-07T04:30:37.957Z,9.20
2023-03-07T04:32:11.565Z,8.02
2023-03-07T04:33:45.843Z,8.82
2023-03-07T04:35:19.166Z,9.48
2023-03-07T04:36:52.464Z,52.17
2023-03-07T04:38:24.970Z,12.50
2023-03-07T04:39:58.047Z,10.68
2023-03-07T04:41:31.281Z,10.15
2023-03-07T04:43:09.253Z,9.73
2023-03-07T04:44:42.610Z,14.43
2023-03-07T04:46:16.245Z,15.82
2023-03-07T04:47:49.458Z,18.42
2023-03-07T04:49:24.334Z,16.45
2023-03-07T04:50:56.725Z,16.02
2023-03-07T04:52:30.216Z,13.65
2023-03-07T04:54:02.450Z,15.38
2023-03-07T04:55:35.969Z,15.02
2023-03-07T04:57:09.520Z,13.80
2023-03-07T04:58:43.249Z,11.27
2023-03-07T05:00:16.442Z,12.35
2023-03-07T05:01:49.909Z,9.60
2023-03-07T05:03:24.348Z,10.32
2023-03-07T05:04:58.904Z,9.73
2023-03-07T05:06:32.330Z,11.18
2023-03-07T05:08:05.376Z,10.25
2023-03-07T05:09:39.229Z,9.32
2023-03-07T05:11:12.354Z,12.00
2023-03-07T05:12:45.543Z,16.50
2023-03-07T05:14:19.366Z,14.07
2023-03-07T05:15:53.603Z,14.18
2023-03-07T05:17:28.001Z,12.32
2023-03-07T05:19:02.932Z,11.32
2023-03-07T05:20:39.431Z,10.23
2023-03-07T05:22:12.834Z,9.18
2023-03-07T05:23:49.073Z,9.23
2023-03-07T05:25:23.334Z,9.25
2023-03-07T05:26:57.042Z,11.00
2023-03-07T05:28:30.625Z,12.52
2023-03-07T05:30:04.006Z,13.98
2023-03-07T05:31:37.213Z,11.95
2023-03-07T05:33:13.003Z,11.40
2023-03-07T05:34:47.120Z,9.23
2023-03-07T05:36:22.792Z,10.75
2023-03-07T05:37:55.166Z,14.20
2023-03-07T05:39:28.842Z,14.57
2023-03-07T05:41:01.769Z,17.70
2023-03-07T05:42:35.096Z,16.33
2023-03-07T05:44:08.715Z,15.93
2023-03-07T05:45:41.994Z,14.68
2023-03-07T05:47:15.430Z,13.52
2023-03-07T05:48:48.781Z,14.10
2023-03-07T05:50:21.136Z,14.60
2023-03-07T05:51:56.312Z,14.95
2023-03-07T05:53:29.700Z,15.00
2023-03-07T05:55:01.881Z,16.73
2023-03-07T05:56:35.096Z,17.15
2023-03-07T05:58:08.568Z,15.82
2023-03-07T05:59:41.992Z,12.95
2023-03-07T06:01:15.281Z,14.68
2023-03-07T06:02:48.583Z,19.48
2023-03-07T06:04:22.643Z,15.80
2023-03-07T06:05:56.163Z,18.15
2023-03-07T06:07:30.761Z,18.35
2023-03-07T06:09:05.746Z,18.42
2023-03-07T06:10:40.424Z,18.23
2023-03-07T06:12:16.188Z,16.33
2023-03-07T06:13:49.330Z,16.50
2023-03-07T06:15:24.882Z,15.52
2023-03-07T06:17:04.471Z,20.70
2023-03-07T06:18:38.720Z,17.45
2023-03-07T06:20:13.029Z,18.38
2023-03-07T06:21:46.338Z,22.38
2023-03-07T06:23:21.028Z,21.70
2023-03-07T06:24:55.144Z,17.67
2023-03-07T06:26:28.423Z,15.95
2023-03-07T06:28:02.199Z,17.00
2023-03-07T06:29:38.061Z,16.58
2023-03-07T06:31:12.459Z,17.05
2023-03-07T06:32:45.793Z,18.40
2023-03-07T06:34:19.326Z,17.63
2023-03-07T06:35:53.954Z,19.15
2023-03-07T06:37:27.436Z,17.38
2023-03-07T06:39:04.874Z,17.92
2023-03-07T06:40:38.603Z,18.63
2023-03-07T06:42:11.017Z,15.25
2023-03-07T06:43:44.334Z,18.85
2023-03-07T06:45:17.585Z,17.85
2023-03-07T06:46:50.729Z,16.92
2023-03-07T06:48:29.569Z,16.85
2023-03-07T06:50:03.769Z,18.30
2023-03-07T06:51:38.785Z,20.45
2023-03-07T06:53:13.583Z,20.95
2023-03-07T06:54:48.540Z,22.27
2023-03-07T06:56:22.116Z,20.10
2023-03-07T06:57:55.346Z,22.23
2023-03-07T06:59:28.636Z,20.95
2023-03-07T07:01:02.133Z,19.25
2023-03-07T07:02:37.145Z,33.45
2023-03-07T07:04:12.067Z,20.30
2023-03-07T07:05:47.015Z,18.40
2023-03-07T07:07:21.023Z,18.08
2023-03-07T07:08:56.540Z,16.10
2023-03-07T07:10:33.444Z,17.58
2023-03-07T07:12:07.494Z,17.30
2023-03-07T07:13:41.742Z,16.30
2023-03-07T07:15:16.976Z,16.55
2023-03-07T07:16:50.350Z,16.13
2023-03-07T07:18:23.554Z,16.95
2023-03-07T07:19:57.134Z,18.63
2023-03-07T07:21:30.607Z,20.42
2023-03-07T07:23:03.705Z,21.55
2023-03-07T07:24:37.061Z,23.58
2023-03-07T07:26:12.490Z,23.38
2023-03-07T07:27:45.944Z,20.45
2023-03-07T07:29:19.165Z,19.73
2023-03-07T07:30:53.710Z,19.02
2023-03-07T07:32:27.371Z,19.92
2023-03-07T07:34:00.940Z,17.60
2023-03-07T07:35:36.321Z,23.15
2023-03-07T07:37:09.660Z,17.70
2023-03-07T07:38:42.866Z,16.02
2023-03-07T07:40:16.447Z,19.58
2023-03-07T07:41:53.471Z,21.20
2023-03-07T07:43:30.117Z,21.15
2023-03-07T07:45:35.991Z,22.15
2023-03-07T07:47:11.229Z,22.85
2023-03-07T07:48:44.373Z,22.83
2023-03-07T07:50:18.257Z,22.42
2023-03-07T07:51:51.951Z,25.67
2023-03-07T07:53:25.378Z,23.95
2023-03-07T07:54:58.541Z,20.33
2023-03-07T07:56:32.774Z,18.90
2023-03-07T07:58:07.322Z,18.15
2023-03-07T07:59:40.562Z,18.67
2023-03-07T08:01:16.056Z,18.15
2023-03-07T08:02:50.700Z,15.88
2023-03-07T08:04:24.249Z,16.10
2023-03-07T08:05:57.426Z,14.80
2023-03-07T08:07:30.593Z,13.68
2023-03-07T08:09:05.537Z,16.27
2023-03-07T08:10:43.141Z,17.33
2023-03-07T08:12:16.321Z,17.55
2023-03-07T08:13:51.023Z,17.13
2023-03-07T08:15:24.261Z,16.05
2023-03-07T08:16:57.898Z,18.17
2023-03-07T08:18:31.071Z,17.73
2023-03-07T08:20:08.609Z,18.33
2023-03-07T08:21:41.794Z,18.48
2023-03-07T08:23:15.347Z,20.13
2023-03-07T08:24:50.263Z,18.65
2023-03-07T08:26:24.429Z,19.90
2023-03-07T08:27:58.272Z,19.83
2023-03-07T08:29:33.313Z,19.60
2023-03-07T08:31:11.053Z,18.77
2023-03-07T08:32:44.298Z,20.02
2023-03-07T08:34:17.459Z,19.20
2023-03-07T08:35:51.148Z,21.00
2023-03-07T08:37:24.303Z,16.02
2023-03-07T08:38:57.501Z,14.60
2023-03-07T08:40:31.981Z,13.93
2023-03-07T08:42:05.817Z,12.65
2023-03-07T08:43:40.271Z,14.48
2023-03-07T08:45:15.324Z,11.40
2023-03-07T08:46:48.467Z,16.77
2023-03-07T08:48:21.914Z,20.95
2023-03-07T08:49:55.064Z,18.27
2023-03-07T08:51:28.780Z,16.20
2023-03-07T08:53:01.905Z,17.63
2023-03-07T08:54:35.404Z,17.17
2023-03-07T08:56:09.219Z,19.40
2023-03-07T08:57:42.761Z,18.00
2023-03-07T08:59:16.162Z,17.40
2023-03-07T09:00:50.828Z,16.95
2023-03-07T09:02:23.962Z,15.60
2023-03-07T09:03:57.526Z,16.50
2023-03-07T09:05:31.150Z,16.75
2023-03-07T09:07:05.093Z,16.85
2023-03-07T09:08:38.223Z,18.10
2023-03-07T09:10:12.709Z,18.33
2023-03-07T09:11:45.892Z,17.08
2023-03-07T09:13:19.123Z,12.73
2023-03-07T09:14:54.968Z,14.25
2023-03-07T09:16:29.628Z,13.50
2023-03-07T09:18:02.829Z,14.95
2023-03-07T09:19:36.580Z,13.45
2023-03-07T09:21:09.790Z,12.73
2023-03-07T09:22:43.179Z,14.77
2023-03-07T09:24:16.287Z,13.68
2023-03-07T09:25:49.566Z,13.73
2023-03-07T09:27:23.028Z,14.30
2023-03-07T09:28:56.419Z,13.77
2023-03-07T09:30:29.610Z,15.63
2023-03-07T09:32:05.666Z,15.02
2023-03-07T09:33:38.884Z,12.82
2023-03-07T09:35:12.386Z,11.32
2023-03-07T09:36:45.805Z,10.68
2023-03-07T09:38:19.110Z,9.25
2023-03-07T09:39:52.203Z,9.18
2023-03-07T09:41:43.877Z,6.47
2023-03-07T09:43:21.007Z,7.40
2023-03-07T09:45:22.314Z,5.82
2023-03-07T09:47:55.127Z,5.95
2023-03-07T09:49:33.548Z,5.00
2023-03-07T09:51:16.780Z,5.53
2023-03-07T09:52:52.486Z,5.72
2023-03-07T09:54:31.368Z,3.80
2023-03-07T09:56:09.504Z,4.45
2023-03-07T09:57:50.554Z,3.85
2023-03-07T09:59:31.905Z,3.50
2023-03-07T10:01:08.258Z,3.50
2023-03-07T10:02:49.477Z,9.32
2023-03-07T10:04:29.221Z,2.78
2023-03-07T10:06:10.381Z,3.88
2023-03-07T10:07:43.493Z,3.90
2023-03-07T10:09:21.989Z,4.15
2023-03-07T10:11:05.204Z,4.32
2023-03-07T10:12:57.389Z,1.83
2023-03-07T10:14:47.702Z,2.85
2023-03-07T10:16:28.527Z,3.25
2023-03-07T10:18:16.367Z,4.80
2023-03-07T10:19:52.348Z,2.88
2023-03-07T10:21:34.215Z,2.92
2023-03-07T10:23:25.180Z,5.28
2023-03-07T10:25:10.330Z,3.25
2023-03-07T10:26:50.710Z,3.75
2023-03-07T10:28:26.851Z,3.50
2023-03-07T10:30:02.624Z,7.57
2023-03-07T10:31:40.824Z,2.63
2023-03-07T10:33:19.576Z,1.83
2023-03-07T10:34:58.129Z,1.45
2023-03-07T10:36:40.705Z,1.42
2023-03-07T10:38:22.363Z,1.52
2023-03-07T10:39:57.390Z,3.05
2023-03-07T10:41:30.937Z,3.28
2023-03-07T10:43:06.056Z,2.42
2023-03-07T10:44:39.952Z,2.00
2023-03-07T10:46:26.875Z,1.55
2023-03-07T10:48:06.790Z,1.55
2023-03-07T10:49:46.569Z,1.67
2023-03-07T10:51:34.633Z,1.92
2023-03-07T10:53:23.075Z,1.52
2023-03-07T10:54:58.037Z,1.58
2023-03-07T10:56:31.269Z,4.45
2023-03-07T10:58:24.875Z,3.53
2023-03-07T11:00:15.220Z,2.00
2023-03-07T11:01:56.370Z,2.42
2023-03-07T11:03:46.007Z,1.90
2023-03-07T11:05:32.474Z,1.55
2023-03-07T11:07:05.741Z,2.10
2023-03-07T11:08:38.844Z,1.85
2023-03-07T11:10:28.672Z,2.08
2023-03-07T11:12:13.792Z,1.85
2023-03-07T11:14:07.026Z,1.60
2023-03-07T11:15:40.317Z,1.48
2023-03-07T11:17:21.360Z,1.80
2023-03-07T11:18:54.595Z,1.63
2023-03-07T11:20:30.954Z,1.73
2023-03-07T11:22:06.211Z,1.88
2023-03-07T11:23:39.479Z,3.75
2023-03-07T11:25:26.945Z,3.00
2023-03-07T11:27:01.081Z,2.88
2023-03-07T11:28:35.909Z,1.90
2023-03-07T11:30:29.267Z,3.92
2023-03-07T11:32:14.217Z,6.72
2023-03-07T11:34:00.002Z,1.98
2023-03-07T11:35:51.440Z,2.13
2023-03-07T11:37:35.517Z,2.63
2023-03-07T11:39:18.753Z,1.42
2023-03-07T11:40:58.048Z,1.50
2023-03-07T11:42:35.899Z,1.33
2023-03-07T11:44:30.557Z,1.73
2023-03-07T11:46:10.405Z,1.35
2023-03-07T11:47:54.149Z,1.92
2023-03-07T11:49:44.441Z,2.17
2023-03-07T11:51:38.796Z,2.47
2023-03-07T11:53:43.176Z,1.90
2023-03-07T11:55:26.706Z,1.88
2023-03-07T11:57:12.303Z,1.35
2023-03-07T11:59:24.194Z,1.45
2023-03-07T12:01:10.255Z,1.70
2023-03-07T12:03:06.991Z,1.83
2023-03-07T12:04:54.882Z,1.60
2023-03-07T12:06:37.460Z,2.30
2023-03-07T12:08:30.687Z,2.10
2023-03-07T12:10:14.974Z,2.15
2023-03-07T12:12:00.688Z,2.38
2023-03-07T12:13:44.811Z,2.30
2023-03-07T12:15:32.425Z,1.90
2023-03-07T12:17:18.874Z,1.95
2023-03-07T12:19:08.656Z,1.80
2023-03-07T12:20:52.461Z,1.45
2023-03-07T12:22:30.201Z,2.90
2023-03-07T12:24:08.183Z,1.88
2023-03-07T12:25:44.789Z,1.58
2023-03-07T12:27:26.792Z,4.05
2023-03-07T12:29:05.157Z,2.28
2023-03-07T12:30:50.759Z,1.98
2023-03-07T12:32:27.901Z,1.73
2023-03-07T12:34:06.859Z,1.80
2023-03-07T12:35:45.560Z,1.77
2023-03-07T12:37:24.801Z,1.80
2023-03-07T12:39:04.267Z,1.60
2023-03-07T12:40:42.922Z,1.70
2023-03-07T12:42:31.429Z,3.00
2023-03-07T12:44:08.709Z,1.77
2023-03-07T12:45:46.850Z,1.80
2023-03-07T12:47:28.509Z,2.75
2023-03-07T12:49:11.152Z,1.50
2023-03-07T12:50:53.923Z,2.45
2023-03-07T12:52:38.055Z,2.17
2023-03-07T12:54:20.058Z,3.53
2023-03-07T12:55:58.468Z,1.73
2023-03-07T12:57:36.021Z,1.88
2023-03-07T12:59:13.504Z,1.77
2023-03-07T13:00:51.392Z,1.85
2023-03-07T13:02:29.909Z,2.00
2023-03-07T13:04:09.152Z,2.60
2023-03-07T13:05:45.196Z,4.25
2023-03-07T13:07:24.028Z,1.73
2023-03-07T13:09:01.621Z,2.15
2023-03-07T13:10:36.317Z,5.47
2023-03-07T13:12:32.170Z,6.55
2023-03-07T13:14:06.676Z,3.92
2023-03-07T13:16:12.810Z,3.65
2023-03-07T13:18:02.189Z,2.42
2023-03-07T13:19:59.986Z,2.75
2023-03-07T13:21:34.261Z,3.47
2023-03-07T13:23:29.626Z,2.75
2023-03-07T13:25:38.715Z,1.75
2023-03-07T13:27:17.920Z,2.70
2023-03-07T13:28:52.478Z,1.83
2023-03-07T13:30:26.850Z,2.85
2023-03-07T13:32:00.141Z,2.83
2023-03-07T13:33:32.403Z,3.15
2023-03-07T13:35:10.191Z,3.60
2023-03-07T13:36:42.429Z,4.82
2023-03-07T13:38:44.230Z,3.03
2023-03-07T13:40:50.904Z,2.58
2023-03-07T13:42:49.512Z,2.70
2023-03-07T13:44:30.532Z,6.47
2023-03-07T13:46:04.922Z,4.25
2023-03-07T13:47:43.025Z,2.60
2023-03-07T13:49:46.280Z,4.03
2023-03-07T13:51:19.576Z,4.88
2023-03-07T13:52:52.893Z,2.70
2023-03-07T13:54:26.008Z,2.63
2023-03-07T13:56:03.468Z,4.15
2023-03-07T13:57:42.187Z,2.55
2023-03-07T13:59:24.608Z,2.53
2023-03-07T14:01:01.885Z,3.30
2023-03-07T14:02:35.176Z,2.05
2023-03-07T14:04:16.063Z,2.58
2023-03-07T14:05:49.652Z,2.83
2023-03-07T14:07:25.869Z,2.13
2023-03-07T14:09:02.702Z,2.45
2023-03-07T14:10:47.999Z,2.45
2023-03-07T14:12:31.308Z,2.15
2023-03-07T14:14:39.021Z,2.05
2023-03-07T14:16:25.857Z,2.00
2023-03-07T14:18:16.335Z,2.28
2023-03-07T14:20:00.144Z,2.65
2023-03-07T14:21:46.018Z,2.63
2023-03-07T14:23:34.994Z,2.55
2023-03-07T14:25:17.078Z,2.42
2023-03-07T14:26:52.106Z,3.10
2023-03-07T14:28:28.016Z,2.28
2023-03-07T14:30:02.603Z,3.25
2023-03-07T14:31:40.107Z,2.15
2023-03-07T14:33:19.171Z,2.80
2023-03-07T14:34:53.280Z,3.22
2023-03-07T14:36:30.355Z,3.10
2023-03-07T14:38:06.804Z,3.17
2023-03-07T14:39:50.002Z,4.82
2023-03-07T14:41:39.372Z,3.75
2023-03-07T14:43:30.063Z,4.28
2023-03-07T14:45:19.060Z,3.55
2023-03-07T14:47:02.818Z,7.43
2023-03-07T14:49:03.197Z,10.05
2023-03-07T14:50:40.151Z,13.82
2023-03-07T14:52:29.627Z,10.65
2023-03-07T14:54:09.089Z,7.47
2023-03-07T14:55:45.902Z,8.00
2023-03-07T14:57:24.931Z,6.32
2023-03-07T14:59:01.521Z,7.50
2023-03-07T15:00:36.335Z,7.68
2023-03-07T15:02:19.247Z,6.30
2023-03-07T15:03:54.058Z,3.70
2023-03-07T15:05:29.108Z,4.47
2023-03-07T15:07:04.603Z,4.10
2023-03-07T15:08:38.845Z,4.20
2023-03-07T15:10:15.694Z,5.95
2023-03-07T15:11:53.741Z,3.20
2023-03-07T15:13:33.113Z,4.90
2023-03-07T15:15:07.626Z,7.50
2023-03-07T15:16:47.904Z,7.85
2023-03-07T15:18:25.695Z,8.00
2023-03-07T15:20:02.936Z,9.15
2023-03-07T15:21:40.087Z,9.07
2023-03-07T15:23:21.774Z,5.63
2023-03-07T15:24:55.118Z,7.50
2023-03-07T15:26:28.855Z,5.55
2023-03-07T15:28:04.529Z,4.15
2023-03-07T15:29:39.307Z,6.35
2023-03-07T15:31:14.228Z,14.50
2023-03-07T15:32:49.013Z,12.85
2023-03-07T15:34:26.641Z,11.20
2023-03-07T15:36:18.375Z,12.55
2023-03-07T15:37:54.483Z,9.20
2023-03-07T15:39:34.829Z,11.10
2023-03-07T15:41:25.818Z,9.27
2023-03-07T15:43:02.243Z,10.48
2023-03-07T15:44:38.267Z,13.25
2023-03-07T15:46:19.092Z,17.80
2023-03-07T15:47:53.911Z,17.67
2023-03-07T15:49:35.133Z,13.75
2023-03-07T15:51:15.949Z,17.95
2023-03-07T15:52:53.977Z,17.75
2023-03-07T15:54:38.672Z,23.95
2023-03-07T15:56:25.901Z,16.42
2023-03-07T15:58:01.947Z,21.10
2023-03-07T15:59:38.453Z,21.83
2023-03-07T16:01:21.128Z,28.17
2023-03-07T16:03:26.075Z,21.17
2023-03-07T16:05:00.058Z,39.00
2023-03-07T16:06:40.446Z,32.33
2023-03-07T16:08:15.391Z,40.83
2023-03-07T16:09:48.587Z,47.38
2023-03-07T16:11:21.707Z,43.92
2023-03-07T16:12:54.915Z,49.30
2023-03-07T16:14:31.320Z,44.13
2023-03-07T16:16:09.468Z,44.30
2023-03-07T16:17:43.536Z,40.95
2023-03-07T16:19:18.217Z,47.00
2023-03-07T16:20:51.380Z,56.47
2023-03-07T16:22:25.094Z,36.97
2023-03-07T16:23:58.231Z,42.22
2023-03-07T16:25:32.975Z,38.05
2023-03-07T16:27:06.176Z,48.90
2023-03-07T16:28:41.471Z,21.52
2023-03-07T16:30:18.324Z,22.95
2023-03-07T16:31:51.547Z,29.58
2023-03-07T16:33:24.738Z,20.55
2023-03-07T16:34:59.512Z,25.00
2023-03-07T16:36:32.700Z,27.52
2023-03-07T16:38:06.094Z,37.22
2023-03-07T16:39:39.216Z,72.07
2023-03-07T16:41:17.364Z,66.30
2023-03-07T16:42:51.670Z,43.90
2023-03-07T16:44:25.103Z,42.58
2023-03-07T16:45:58.778Z,41.67
2023-03-07T16:47:32.347Z,43.90
2023-03-07T16:49:05.499Z,39.58
2023-03-07T16:50:40.195Z,43.72
2023-03-07T16:52:14.550Z,32.03
2023-03-07T16:53:49.351Z,48.85
2023-03-07T16:55:23.511Z,74.88
2023-03-07T16:56:58.340Z,56.33
2023-03-07T16:58:35.035Z,61.40
2023-03-07T17:00:13.773Z,85.55
2023-03-07T17:01:49.202Z,61.67
2023-03-07T17:03:22.790Z,43.58
2023-03-07T17:04:56.061Z,48.75
2023-03-07T17:06:39.219Z,40.47
2023-03-07T17:08:12.715Z,47.38
2023-03-07T17:09:45.896Z,46.20
2023-03-07T17:11:21.147Z,37.78
2023-03-07T17:12:56.134Z,30.50
2023-03-07T17:14:29.753Z,34.00
2023-03-07T17:16:02.943Z,53.50
2023-03-07T17:17:37.575Z,35.00
2023-03-07T17:19:23.371Z,54.78
2023-03-07T17:20:56.515Z,40.72
2023-03-07T17:22:31.019Z,25.83
2023-03-07T17:24:04.264Z,28.38
2023-03-07T17:25:37.817Z,37.03
2023-03-07T17:27:11.142Z,28.42
2023-03-07T17:28:44.864Z,24.38
2023-03-07T17:30:21.664Z,24.25
2023-03-07T17:31:55.121Z,20.05
2023-03-07T17:33:28.223Z,36.47
2023-03-07T17:35:01.384Z,43.67
2023-03-07T17:36:34.808Z,46.70
2023-03-07T17:38:09.983Z,47.08
2023-03-07T17:39:43.940Z,35.42
2023-03-07T17:41:17.716Z,34.30
2023-03-07T17:42:54.778Z,55.72
2023-03-07T17:44:29.050Z,48.55
2023-03-07T17:46:02.325Z,45.03
2023-03-07T17:47:35.606Z,36.22
2023-03-07T17:49:08.728Z,32.83
2023-03-07T17:50:42.258Z,22.23
2023-03-07T17:52:15.357Z,15.63
2023-03-07T17:53:49.940Z,43.03
2023-03-07T17:55:25.484Z,21.88
2023-03-07T17:56:59.371Z,22.67
2023-03-07T17:58:32.432Z,25.35
2023-03-07T18:00:12.036Z,24.30
2023-03-07T18:01:45.925Z,25.65
2023-03-07T18:03:19.455Z,32.90
2023-03-07T18:04:52.653Z,42.17
2023-03-07T18:06:26.686Z,66.70
2023-03-07T18:07:59.853Z,59.92
2023-03-07T18:09:35.378Z,55.47
2023-03-07T18:11:10.429Z,62.25
2023-03-07T18:12:44.708Z,63.22
2023-03-07T18:14:18.199Z,55.22
2023-03-07T18:15:51.538Z,44.67
2023-03-07T18:17:24.687Z,38.28
2023-03-07T18:19:00.704Z,46.17
2023-03-07T18:20:34.601Z,43.45
2023-03-07T18:22:08.364Z,40.80
2023-03-07T18:23:43.045Z,35.22
2023-03-07T18:25:19.085Z,33.97
2023-03-07T18:26:52.502Z,36.67
2023-03-07T18:28:26.496Z,26.73
2023-03-07T18:29:59.900Z,28.73
2023-03-07T18:31:34.964Z,46.45
2023-03-07T18:33:08.217Z,54.58
2023-03-07T18:34:41.478Z,41.67
2023-03-07T18:36:16.821Z,39.78
2023-03-07T18:37:50.053Z,34.20
2023-03-07T18:39:24.654Z,24.35
2023-03-07T18:41:06.690Z,12.93
2023-03-07T18:42:40.325Z,10.82
2023-03-07T18:44:13.610Z,16.95
2023-03-07T18:45:48.146Z,14.48
2023-03-07T18:47:21.299Z,14.43
2023-03-07T18:48:54.967Z,15.90
2023-03-07T18:50:28.251Z,16.10
2023-03-07T18:52:01.632Z,17.38
2023-03-07T18:53:36.107Z,12.60
2023-03-07T18:55:10.143Z,17.77
2023-03-07T18:56:46.973Z,23.65
2023-03-07T18:58:20.430Z,17.80
2023-03-07T18:59:53.591Z,22.40
2023-03-07T19:01:28.526Z,14.70
2023-03-07T19:03:01.688Z,15.15
2023-03-07T19:04:35.054Z,12.48
2023-03-07T19:06:09.068Z,11.32
2023-03-07T19:07:42.331Z,11.27
2023-03-07T19:09:17.398Z,11.73
2023-03-07T19:10:50.664Z,11.43
2023-03-07T19:12:25.520Z,9.52
2023-03-07T19:13:58.920Z,10.30
2023-03-07T19:15:32.609Z,11.55
2023-03-07T19:17:05.789Z,15.73
2023-03-07T19:18:39.556Z,13.57
2023-03-07T19:20:13.447Z,13.38
2023-03-07T19:21:46.636Z,11.80
2023-03-07T19:23:21.410Z,13.60
2023-03-07T19:24:54.920Z,14.35
2023-03-07T19:26:28.275Z,14.23
2023-03-07T19:28:03.061Z,15.20
2023-03-07T19:29:36.687Z,16.58
2023-03-07T19:31:11.684Z,11.68
2023-03-07T19:32:45.062Z,12.23
2023-03-07T19:34:18.178Z,11.73
2023-03-07T19:36:02.720Z,11.77
2023-03-07T19:37:36.749Z,13.32
2023-03-07T19:39:14.947Z,16.13
2023-03-07T19:40:49.293Z,14.75
2023-03-07T19:42:22.992Z,13.85
2023-03-07T19:43:59.394Z,12.90
2023-03-07T19:45:32.529Z,11.07
2023-03-07T19:47:06.351Z,13.90
2023-03-07T19:48:40.908Z,13.20
2023-03-07T19:50:14.364Z,12.48
2023-03-07T19:51:47.551Z,11.18
2023-03-07T19:53:21.384Z,12.10
2023-03-07T19:54:54.933Z,9.57
2023-03-07T19:56:29.999Z,8.73
2023-03-07T19:58:03.113Z,7.50
2023-03-07T19:59:37.883Z,9.23
2023-03-07T20:01:13.079Z,8.50
2023-03-07T20:02:46.275Z,7.05
2023-03-07T20:04:19.437Z,6.35
2023-03-07T20:05:51.895Z,7.72
2023-03-07T20:07:25.236Z,7.57
2023-03-07T20:08:59.968Z,6.82
2023-03-07T20:10:33.159Z,6.32
2023-03-07T20:12:06.679Z,8.35
2023-03-07T20:13:40.682Z,11.63
2023-03-07T20:15:15.360Z,10.20
2023-03-07T20:16:48.764Z,9.73
2023-03-07T20:18:22.185Z,13.40
2023-03-07T20:19:55.886Z,15.13
2023-03-07T20:21:30.579Z,15.10
2023-03-07T20:23:03.760Z,24.23
2023-03-07T20:24:37.217Z,38.08
2023-03-07T20:26:12.416Z,27.00
2023-03-07T20:27:45.915Z,26.58
2023-03-07T20:29:19.125Z,50.75
2023-03-07T20:30:53.862Z,30.20
2023-03-07T20:32:27.352Z,18.70
2023-03-07T20:34:04.822Z,18.42
2023-03-07T20:35:41.296Z,14.27
2023-03-07T20:37:17.098Z,16.92
2023-03-07T20:38:53.484Z,15.27
2023-03-07T20:40:26.865Z,11.35
2023-03-07T20:42:00.432Z,10.75
2023-03-07T20:43:41.836Z,13.07
2023-03-07T20:45:23.063Z,16.55
2023-03-07T20:46:58.081Z,21.20
2023-03-07T20:48:31.644Z,16.35
2023-03-07T20:50:05.151Z,15.57
2023-03-07T20:51:39.273Z,13.55
2023-03-07T20:53:12.995Z,14.20
2023-03-07T20:54:46.102Z,15.13
2023-03-07T20:56:20.285Z,24.17
2023-03-07T20:57:53.651Z,40.97
2023-03-07T20:59:26.780Z,29.67
2023-03-07T21:01:00.150Z,28.10
2023-03-07T21:02:34.793Z,27.45